createdAt,value
2022-09-04T00:01:20.498Z,17.06
2022-09-04T00:03:57.671Z,17.06
2022-09-04T00:06:32.639Z,17.03
2022-09-04T00:09:12.444Z,17.01
2022-09-04T00:11:50.345Z,17.04
2022-09-04T00:14:24.408Z,17.09
2022-09-04T00:17:01.170Z,17.11
2022-09-04T00:19:37.918Z,17.12
2022-09-04T00:22:16.367Z,17.16
2022-09-04T00:24:53.404Z,17.15
2022-09-04T00:27:26.737Z,17.15
2022-09-04T00:30:03.719Z,17.19
2022-09-04T00:32:41.457Z,17.21
2022-09-04T00:35:16.767Z,17.21
2022-09-04T00:37:53.208Z,17.17
2022-09-04T00:40:31.621Z,17.20
2022-09-04T00:43:30.580Z,17.22
2022-09-04T00:46:19.086Z,17.22
2022-09-04T00:49:09.749Z,17.27
2022-09-04T00:51:46.047Z,17.29
2022-09-04T00:54:36.666Z,17.31
2022-09-04T00:57:29.925Z,17.31
2022-09-04T01:00:10.595Z,17.28
2022-09-04T01:02:58.957Z,17.22
2022-09-04T01:05:45.738Z,17.21
2022-09-04T01:08:29.238Z,17.22
2022-09-04T01:11:15.718Z,17.23
2022-09-04T01:13:48.572Z,17.27
2022-09-04T01:16:26.493Z,17.28
2022-09-04T01:19:03.338Z,17.25
2022-09-04T01:21:57.869Z,17.30
2022-09-04T01:24:43.589Z,17.28
2022-09-04T01:27:21.556Z,17.29
2022-09-04T01:30:01.217Z,17.28
2022-09-04T01:32:34.118Z,17.26
2022-09-04T01:35:12.857Z,17.28
2022-09-04T01:37:51.518Z,17.31
2022-09-04T01:40:35.370Z,17.30
2022-09-04T01:43:11.670Z,17.30
2022-09-04T01:46:01.356Z,17.30
2022-09-04T01:48:38.180Z,17.32
2022-09-04T01:51:16.958Z,17.31
2022-09-04T01:53:52.921Z,17.31
2022-09-04T01:56:30.847Z,17.31
2022-09-04T01:59:08.730Z,17.32
2022-09-04T02:01:42.730Z,17.29
2022-09-04T02:04:22.131Z,17.30
2022-09-04T02:06:59.660Z,17.28
2022-09-04T02:09:37.791Z,17.26
2022-09-04T02:12:21.649Z,17.30
2022-09-04T02:15:03.810Z,17.31
2022-09-04T02:17:42.251Z,17.30
2022-09-04T02:20:23.089Z,17.28
2022-09-04T02:23:05.621Z,17.34
2022-09-04T02:25:42.674Z,17.39
2022-09-04T02:28:24.693Z,17.39
2022-09-04T02:31:02.933Z,17.42
2022-09-04T02:33:39.750Z,17.44
2022-09-04T02:36:14.892Z,17.44
2022-09-04T02:38:53.598Z,17.43
2022-09-04T02:41:28.601Z,17.47
2022-09-04T02:44:12.309Z,17.48
2022-09-04T02:46:53.887Z,17.47
2022-09-04T02:49:34.184Z,17.46
2022-09-04T02:52:16.814Z,17.46
2022-09-04T02:55:05.287Z,17.53
2022-09-04T02:57:50.575Z,17.50
2022-09-04T03:00:22.032Z,17.52
2022-09-04T03:03:01.961Z,17.54
2022-09-04T03:05:35.330Z,17.57
2022-09-04T03:08:13.300Z,17.54
2022-09-04T03:10:48.862Z,17.51
2022-09-04T03:13:25.271Z,17.54
2022-09-04T03:15:58.424Z,17.53
2022-09-04T03:18:36.400Z,17.50
2022-09-04T03:21:11.351Z,17.49
2022-09-04T03:23:44.719Z,17.53
2022-09-04T03:26:21.809Z,17.53
2022-09-04T03:29:04.300Z,17.50
2022-09-04T03:31:42.084Z,17.50
2022-09-04T03:34:29.852Z,17.49
2022-09-04T03:37:17.170Z,17.51
2022-09-04T03:40:00.232Z,17.52
2022-09-04T03:42:37.353Z,17.55
2022-09-04T03:45:20.489Z,17.55
2022-09-04T03:48:06.075Z,17.55
2022-09-04T03:50:45.590Z,17.56
2022-09-04T03:53:24.087Z,17.54
2022-09-04T03:56:14.467Z,17.56
2022-09-04T03:58:50.788Z,17.54
2022-09-04T04:01:30.064Z,17.54
2022-09-04T04:04:37.880Z,17.52
2022-09-04T04:07:18.018Z,17.54
2022-09-04T04:10:07.399Z,17.52
2022-09-04T04:12:59.668Z,17.53
2022-09-04T04:15:39.318Z,17.54
2022-09-04T04:18:19.244Z,17.52
2022-09-04T04:20:58.651Z,17.52
2022-09-04T04:23:57.070Z,17.51
2022-09-04T04:26:41.148Z,17.49
2022-09-04T04:29:40.958Z,17.46
2022-09-04T04:32:25.771Z,17.43
2022-09-04T04:35:17.639Z,17.41
2022-09-04T04:38:04.089Z,17.44
2022-09-04T04:40:54.477Z,17.44
2022-09-04T04:43:35.552Z,17.44
2022-09-04T04:46:14.201Z,17.43
2022-09-04T04:49:08.130Z,17.48
2022-09-04T04:51:53.742Z,17.49
2022-09-04T04:54:42.981Z,17.48
2022-09-04T04:57:23.521Z,17.49
2022-09-04T05:00:07.560Z,17.50
2022-09-04T05:02:44.176Z,17.50
2022-09-04T05:05:22.729Z,17.52
2022-09-04T05:08:03.862Z,17.56
2022-09-04T05:10:42.703Z,17.55
2022-09-04T05:13:23.388Z,17.63
2022-09-04T05:16:09.624Z,17.64
2022-09-04T05:18:48.954Z,17.66
2022-09-04T05:21:24.628Z,17.69
2022-09-04T05:24:01.233Z,17.69
2022-09-04T05:26:40.320Z,17.69
2022-09-04T05:29:15.747Z,17.64
2022-09-04T05:31:52.928Z,17.61
2022-09-04T05:34:30.998Z,17.59
2022-09-04T05:37:12.001Z,17.56
2022-09-04T05:39:57.015Z,17.56
2022-09-04T05:42:45.848Z,17.58
2022-09-04T05:45:24.782Z,17.57
2022-09-04T05:48:12.076Z,17.60
2022-09-04T05:50:55.503Z,17.65
2022-09-04T05:53:42.359Z,17.68
2022-09-04T05:56:32.949Z,17.65
2022-09-04T05:59:17.609Z,17.64
2022-09-04T06:02:11.364Z,17.56
2022-09-04T06:05:06.116Z,17.47
2022-09-04T06:07:43.790Z,17.42
2022-09-04T06:10:18.087Z,17.37
2022-09-04T06:13:03.757Z,17.39
2022-09-04T06:15:41.929Z,17.30
2022-09-04T06:18:24.924Z,17.19
2022-09-04T06:21:08.852Z,17.13
2022-09-04T06:23:57.820Z,17.09
2022-09-04T06:26:47.429Z,17.04
2022-09-04T06:29:27.097Z,17.04
2022-09-04T06:32:12.239Z,17.03
2022-09-04T06:35:00.678Z,17.02
2022-09-04T06:37:42.988Z,17.07
2022-09-04T06:40:33.910Z,17.16
2022-09-04T06:43:16.882Z,17.23
2022-09-04T06:46:02.132Z,17.30
2022-09-04T06:48:45.079Z,17.41
2022-09-04T06:51:29.297Z,17.48
2022-09-04T06:54:13.389Z,17.53
2022-09-04T06:56:59.809Z,17.55
2022-09-04T06:59:43.143Z,17.58
2022-09-04T07:02:26.311Z,17.58
2022-09-04T07:05:10.480Z,17.62
2022-09-04T07:07:48.208Z,17.66
2022-09-04T07:10:24.201Z,17.73
2022-09-04T07:13:18.134Z,17.80
2022-09-04T07:16:05.569Z,17.84
2022-09-04T07:18:59.594Z,17.87
2022-09-04T07:21:38.025Z,17.85
2022-09-04T07:24:18.684Z,17.88
2022-09-04T07:26:55.692Z,17.91
2022-09-04T07:29:34.723Z,17.93
2022-09-04T07:32:09.834Z,17.92
2022-09-04T07:34:49.161Z,17.93
2022-09-04T07:37:28.126Z,17.95
2022-09-04T07:40:09.765Z,18.02
2022-09-04T07:42:47.195Z,18.04
2022-09-04T07:45:30.203Z,18.00
2022-09-04T07:48:14.501Z,17.92
2022-09-04T07:51:03.953Z,17.90
2022-09-04T07:53:49.712Z,17.92
2022-09-04T07:56:27.443Z,17.95
2022-09-04T07:59:13.673Z,17.96
2022-09-04T08:02:04.468Z,17.92
2022-09-04T08:05:00.309Z,17.86
2022-09-04T08:07:57.583Z,17.83
2022-09-04T08:10:32.644Z,17.90
2022-09-04T08:13:14.544Z,17.87
2022-09-04T08:15:51.317Z,17.87
2022-09-04T08:18:46.996Z,17.89
2022-09-04T08:21:27.232Z,17.90
2022-09-04T08:24:27.378Z,17.91
2022-09-04T08:27:10.985Z,17.99
2022-09-04T08:29:59.462Z,18.00
2022-09-04T08:32:53.742Z,18.03
2022-09-04T08:35:33.232Z,17.99
2022-09-04T08:38:22.564Z,18.03
2022-09-04T08:41:26.294Z,18.03
2022-09-04T08:44:19.573Z,18.08
2022-09-04T08:47:19.870Z,18.12
2022-09-04T08:50:06.292Z,18.14
2022-09-04T08:53:03.156Z,18.18
2022-09-04T08:56:00.034Z,18.17
2022-09-04T08:59:02.109Z,18.15
2022-09-04T09:02:06.203Z,18.19
2022-09-04T09:04:57.274Z,18.21
2022-09-04T09:07:46.784Z,18.22
2022-09-04T09:10:34.052Z,18.30
2022-09-04T09:13:27.239Z,18.35
2022-09-04T09:16:22.308Z,18.35
2022-09-04T09:19:13.187Z,18.37
2022-09-04T09:21:46.810Z,18.42
2022-09-04T09:24:39.269Z,18.41
2022-09-04T09:27:41.849Z,18.42
2022-09-04T09:30:16.816Z,18.44
2022-09-04T09:33:16.007Z,18.50
2022-09-04T09:36:12.609Z,18.56
2022-09-04T09:39:11.368Z,18.57
2022-09-04T09:42:15.558Z,18.53
2022-09-04T09:45:07.717Z,18.45
2022-09-04T09:48:04.088Z,18.42
2022-09-04T09:51:04.775Z,18.44
2022-09-04T09:54:07.779Z,18.47
2022-09-04T09:57:01.937Z,18.52
2022-09-04T10:00:02.506Z,18.54
2022-09-04T10:03:02.738Z,18.58
2022-09-04T10:05:56.397Z,18.68
2022-09-04T10:08:55.187Z,18.76
2022-09-04T10:11:42.481Z,18.81
2022-09-04T10:14:33.280Z,18.90
2022-09-04T10:17:33.658Z,18.92
2022-09-04T10:20:27.629Z,18.90
2022-09-04T10:23:33.334Z,19.03
2022-09-04T10:26:23.823Z,19.15
2022-09-04T10:29:21.701Z,19.29
2022-09-04T10:32:16.188Z,19.32
2022-09-04T10:35:05.599Z,19.45
2022-09-04T10:37:54.809Z,19.54
2022-09-04T10:40:39.719Z,19.54
2022-09-04T10:43:31.671Z,19.55
2022-09-04T10:46:23.228Z,19.59
2022-09-04T10:49:20.803Z,19.68
2022-09-04T10:52:22.872Z,19.74
2022-09-04T10:55:15.221Z,19.85
2022-09-04T10:58:00.509Z,19.86
2022-09-04T11:00:37.079Z,20.01
2022-09-04T11:03:35.542Z,20.08
2022-09-04T11:06:26.783Z,20.11
2022-09-04T11:09:20.461Z,20.16
2022-09-04T11:12:13.319Z,20.26
2022-09-04T11:15:12.821Z,20.35
2022-09-04T11:18:04.159Z,20.38
2022-09-04T11:21:03.279Z,20.45
2022-09-04T11:23:53.542Z,20.52
2022-09-04T11:26:51.618Z,20.59
2022-09-04T11:29:41.448Z,20.62
2022-09-04T11:32:32.361Z,20.64
2022-09-04T11:35:23.609Z,20.70
2022-09-04T11:38:24.902Z,20.72
2022-09-04T11:41:22.599Z,20.64
2022-09-04T11:44:22.542Z,20.84
2022-09-04T11:47:13.668Z,20.90
2022-09-04T11:50:00.280Z,20.93
2022-09-04T11:52:50.833Z,20.92
2022-09-04T11:55:41.422Z,20.92
2022-09-04T11:58:31.435Z,20.87
2022-09-04T12:01:20.806Z,20.98
2022-09-04T12:04:23.643Z,20.94
2022-09-04T12:07:14.313Z,21.01
2022-09-04T12:10:02.986Z,21.01
2022-09-04T12:12:58.288Z,21.05
2022-09-04T12:15:57.906Z,21.11
2022-09-04T12:18:54.628Z,21.17
2022-09-04T12:21:53.233Z,21.19
2022-09-04T12:24:52.506Z,21.18
2022-09-04T12:27:49.686Z,21.27
2022-09-04T12:30:23.863Z,21.27
2022-09-04T12:33:23.508Z,21.24
2022-09-04T12:36:24.775Z,21.21
2022-09-04T12:39:18.766Z,21.24
2022-09-04T12:41:55.647Z,21.28
2022-09-04T12:44:40.063Z,21.34
2022-09-04T12:47:22.735Z,21.47
2022-09-04T12:50:10.866Z,21.66
2022-09-04T12:52:57.806Z,21.65
2022-09-04T12:55:39.293Z,21.65
2022-09-04T12:58:22.626Z,21.70
2022-09-04T13:01:03.217Z,21.72
2022-09-04T13:03:45.086Z,21.72
2022-09-04T13:06:26.144Z,21.69
2022-09-04T13:09:11.956Z,21.72
2022-09-04T13:12:00.705Z,21.77
2022-09-04T13:14:57.954Z,21.84
2022-09-04T13:17:33.173Z,21.96
2022-09-04T13:20:15.176Z,22.10
2022-09-04T13:22:52.975Z,22.10
2022-09-04T13:25:38.119Z,22.01
2022-09-04T13:28:20.545Z,21.91
2022-09-04T13:31:00.493Z,21.68
2022-09-04T13:33:49.210Z,21.66
2022-09-04T13:36:35.835Z,21.69
2022-09-04T13:39:36.874Z,21.72
2022-09-04T13:42:37.793Z,21.72
2022-09-04T13:45:15.695Z,21.69
2022-09-04T13:47:50.843Z,21.73
2022-09-04T13:50:25.983Z,21.70
2022-09-04T13:53:00.734Z,21.64
2022-09-04T13:55:34.725Z,21.58
2022-09-04T13:58:11.274Z,21.60
2022-09-04T14:00:46.437Z,21.55
2022-09-04T14:03:31.030Z,21.49
2022-09-04T14:06:00.757Z,21.50
2022-09-04T14:08:31.585Z,21.52
2022-09-04T14:11:21.498Z,21.55
2022-09-04T14:14:20.178Z,21.57
2022-09-04T14:16:55.098Z,21.62
2022-09-04T14:19:37.703Z,21.61
2022-09-04T14:22:22.097Z,21.79
2022-09-04T14:25:06.721Z,21.79
2022-09-04T14:27:49.965Z,21.84
2022-09-04T14:30:23.267Z,22.07
2022-09-04T14:33:07.636Z,22.07
2022-09-04T14:35:47.315Z,22.11
2022-09-04T14:38:30.534Z,22.24
2022-09-04T14:41:10.586Z,22.47
2022-09-04T14:43:50.586Z,22.65
2022-09-04T14:46:28.823Z,22.73
2022-09-04T14:49:06.325Z,22.84
2022-09-04T14:51:37.576Z,22.90
2022-09-04T14:54:08.560Z,22.79
2022-09-04T14:56:45.335Z,22.67
2022-09-04T14:59:21.669Z,22.63
2022-09-04T15:02:03.416Z,22.58
2022-09-04T15:04:40.656Z,22.55
2022-09-04T15:07:29.427Z,22.57
2022-09-04T15:10:11.137Z,22.58
2022-09-04T15:12:44.127Z,22.57
2022-09-04T15:15:22.717Z,22.61
2022-09-04T15:17:55.707Z,22.63
2022-09-04T15:20:29.548Z,22.59
2022-09-04T15:23:03.617Z,22.52
2022-09-04T15:25:58.809Z,22.56
2022-09-04T15:28:38.736Z,22.56
2022-09-04T15:31:16.181Z,22.53
2022-09-04T15:33:48.445Z,22.50
2022-09-04T15:36:21.780Z,22.40
2022-09-04T15:38:53.839Z,22.29
2022-09-04T15:41:36.949Z,22.19
2022-09-04T15:44:18.489Z,22.07
2022-09-04T15:46:59.021Z,22.03
2022-09-04T15:49:42.309Z,21.90
2022-09-04T15:52:31.390Z,21.92
2022-09-04T15:55:10.802Z,21.86
2022-09-04T15:57:58.771Z,21.82
2022-09-04T16:00:32.534Z,21.79
2022-09-04T16:03:12.311Z,21.75
2022-09-04T16:05:45.453Z,21.69
2022-09-04T16:08:23.892Z,21.67
2022-09-04T16:11:00.545Z,21.65
2022-09-04T16:13:45.255Z,21.63
2022-09-04T16:16:23.164Z,21.60
2022-09-04T16:19:16.243Z,21.55
2022-09-04T16:21:54.182Z,21.48
2022-09-04T16:24:31.341Z,21.45
2022-09-04T16:27:01.540Z,21.41
2022-09-04T16:29:36.939Z,21.37
2022-09-04T16:32:10.034Z,21.33
2022-09-04T16:34:47.622Z,21.31
2022-09-04T16:37:22.042Z,21.29
2022-09-04T16:40:02.463Z,21.27
2022-09-04T16:42:38.750Z,21.25
2022-09-04T16:45:15.497Z,21.25
2022-09-04T16:47:51.190Z,21.21
2022-09-04T16:50:28.214Z,21.16
2022-09-04T16:53:12.847Z,21.15
2022-09-04T16:55:54.989Z,21.10
2022-09-04T16:58:37.580Z,21.02
2022-09-04T17:01:16.397Z,20.99
2022-09-04T17:04:13.420Z,20.92
2022-09-04T17:06:56.513Z,20.87
2022-09-04T17:09:32.550Z,20.85
2022-09-04T17:12:18.147Z,20.80
2022-09-04T17:14:54.129Z,20.74
2022-09-04T17:17:30.655Z,20.65
2022-09-04T17:20:10.384Z,20.58
2022-09-04T17:29:03.038Z,20.45
2022-09-04T17:29:16.881Z,20.23
2022-09-04T17:29:24.881Z,20.19
2022-09-04T17:31:52.482Z,20.08
2022-09-04T17:40:33.848Z,19.96
2022-09-04T17:40:39.025Z,19.85
2022-09-04T17:40:54.772Z,19.72
2022-09-04T17:43:28.495Z,19.61
2022-09-04T17:46:14.058Z,19.45
2022-09-04T17:48:45.625Z,19.23
2022-09-04T17:51:19.320Z,19.11
2022-09-04T17:53:54.204Z,19.07
2022-09-04T17:56:28.102Z,19.01
2022-09-04T17:59:02.734Z,18.90
2022-09-04T18:01:40.724Z,18.86
2022-09-04T18:04:22.730Z,18.87
2022-09-04T18:07:35.583Z,18.79
2022-09-04T18:10:02.778Z,18.71
2022-09-04T18:12:38.562Z,18.56
2022-09-04T18:15:32.379Z,18.34
2022-09-04T18:18:12.314Z,18.63
2022-09-04T18:20:51.730Z,18.68
2022-09-04T18:23:48.134Z,18.66
2022-09-04T18:26:40.100Z,18.65
2022-09-04T18:32:57.610Z,18.52
2022-09-04T18:37:15.725Z,18.49
2022-09-04T18:37:23.395Z,18.43
2022-09-04T18:38:38.373Z,18.37
2022-09-04T18:46:28.775Z,18.24
2022-09-04T18:50:35.292Z,18.04
2022-09-04T18:50:36.654Z,18.08
2022-09-04T18:50:39.983Z,18.04
2022-09-04T18:53:07.435Z,18.00
2022-09-04T18:55:45.012Z,17.90
2022-09-04T18:58:37.090Z,17.84
2022-09-04T19:01:14.534Z,17.76
2022-09-04T19:03:48.330Z,17.73
2022-09-04T19:06:31.489Z,17.80
2022-09-04T19:09:11.178Z,17.79
2022-09-04T19:11:44.700Z,17.74
2022-09-04T19:14:17.723Z,17.76
2022-09-04T19:16:53.193Z,17.77
2022-09-04T19:19:29.725Z,17.82
2022-09-04T19:22:10.273Z,17.77
2022-09-04T19:24:49.591Z,17.65
2022-09-04T19:27:29.460Z,17.51
2022-09-04T19:30:18.212Z,17.44
2022-09-04T19:33:04.920Z,17.45
2022-09-04T19:35:39.700Z,17.48
2022-09-04T19:42:02.953Z,17.45
2022-09-04T19:46:01.038Z,17.47
2022-09-04T19:46:09.596Z,17.36
2022-09-04T19:47:29.816Z,17.19
2022-09-04T19:53:22.726Z,17.16
2022-09-04T19:53:29.642Z,17.16
2022-09-04T19:56:04.201Z,17.09
2022-09-04T19:58:42.601Z,17.04
2022-09-04T20:01:17.416Z,16.95
2022-09-04T20:03:52.035Z,16.87
2022-09-04T20:06:26.002Z,16.77
2022-09-04T20:09:03.858Z,16.72
2022-09-04T20:11:39.438Z,16.70
2022-09-04T20:14:23.101Z,16.71
2022-09-04T20:17:18.612Z,16.73
2022-09-04T20:19:53.652Z,16.77
2022-09-04T20:22:33.244Z,16.86
2022-09-04T20:25:26.612Z,16.92
2022-09-04T20:28:02.352Z,16.95
2022-09-04T20:30:35.334Z,16.93
2022-09-04T20:33:12.812Z,16.92
2022-09-04T20:35:45.726Z,16.82
2022-09-04T20:38:22.962Z,16.74
2022-09-04T20:40:58.112Z,16.70
2022-09-04T20:43:38.785Z,16.67
2022-09-04T20:51:24.083Z,16.60
2022-09-04T20:52:48.886Z,16.62
2022-09-04T20:52:51.601Z,16.55
2022-09-04T20:55:16.443Z,16.47
2022-09-04T21:03:14.934Z,16.44
2022-09-04T21:03:17.734Z,16.50
2022-09-04T21:04:10.347Z,16.54
2022-09-04T21:06:46.242Z,16.56
2022-09-04T21:09:28.202Z,16.51
2022-09-04T21:12:06.314Z,16.56
2022-09-04T21:14:44.978Z,16.48
2022-09-04T21:17:40.535Z,16.41
2022-09-04T21:20:32.423Z,16.43
2022-09-04T21:23:24.830Z,16.47
2022-09-04T21:26:07.461Z,16.45
2022-09-04T21:28:59.705Z,16.45
2022-09-04T21:32:02.316Z,16.33
2022-09-04T21:34:55.513Z,16.17
2022-09-04T21:37:32.301Z,16.09
2022-09-04T21:40:50.440Z,15.97
2022-09-04T21:43:37.009Z,15.95
2022-09-04T21:46:24.795Z,15.93
2022-09-04T21:49:23.596Z,15.87
2022-09-04T21:52:14.766Z,15.75
2022-09-04T21:58:43.989Z,15.74
2022-09-04T22:02:38.663Z,15.90
2022-09-04T22:02:39.064Z,15.82
2022-09-04T22:04:17.923Z,15.85
2022-09-04T22:08:24.032Z,15.82
2022-09-04T22:13:40.330Z,15.87
2022-09-04T22:13:42.099Z,15.93
2022-09-04T22:16:07.359Z,15.93
2022-09-04T22:19:06.972Z,15.95
2022-09-04T22:22:04.202Z,15.97
2022-09-04T22:25:04.779Z,15.97
2022-09-04T22:28:07.351Z,15.90
2022-09-04T22:30:56.199Z,15.92
2022-09-04T22:34:16.979Z,15.91
2022-09-04T22:37:07.209Z,15.79
2022-09-04T22:40:03.104Z,15.74
2022-09-04T22:42:48.378Z,15.73
2022-09-04T22:45:47.867Z,15.75
2022-09-04T22:48:47.866Z,15.77
2022-09-04T22:51:45.676Z,15.80
2022-09-04T22:54:32.579Z,15.78
2022-09-04T22:57:05.537Z,15.77
2022-09-04T22:59:58.389Z,15.77
2022-09-04T23:03:07.694Z,15.78
2022-09-04T23:07:47.075Z,15.78
2022-09-04T23:13:44.173Z,15.74
2022-09-04T23:14:02.408Z,15.72
2022-09-04T23:15:34.390Z,15.69
2022-09-04T23:20:21.057Z,15.67
2022-09-04T23:26:43.052Z,15.61
2022-09-04T23:26:44.824Z,15.60
2022-09-04T23:27:39.331Z,15.55
2022-09-04T23:30:25.762Z,15.40
2022-09-04T23:33:27.069Z,15.22
2022-09-04T23:36:04.455Z,15.06
2022-09-04T23:38:51.489Z,14.97
2022-09-04T23:41:33.857Z,14.89
2022-09-04T23:44:25.388Z,14.83
2022-09-04T23:47:48.349Z,14.81
2022-09-04T23:50:23.409Z,14.72
2022-09-04T23:53:07.678Z,14.77
2022-09-04T23:55:51.009Z,14.82
2022-09-04T23:58:47.210Z,14.89
